CPQ858 KFNL-KPVU
Flight info
| Callsign | CPQ858 |
|---|---|
| Flight time | N/A |
| Altitude | 24000 |
| Route | ROCKI7 EKR MTU FFU |
| Aircraft | DH8D/M-SDE2E3FGRUY/L |
Departure
| Time | N/A |
|---|---|
| Airport | Northern Colorado Regional Airport (KFNL) |
Arrival
| Time | 2026-05-03 21:30 |
|---|---|
| Airport | Provo Municipal Airport (KPVU) |
| Time | Latitude | Longitude | Altitude | Speed | Heading |
|---|---|---|---|---|---|
| 2026-05-03 20:15 | 40.04439 | -105.31696 | 19349 ft | 243 kts | 257° |
| 2026-05-03 20:15 | 40.04010 | -105.33821 | 19525 ft | 243 kts | 257° |
| 2026-05-03 20:15 | 40.03581 | -105.35940 | 19689 ft | 243 kts | 257° |
| 2026-05-03 20:15 | 40.03145 | -105.38075 | 19844 ft | 242 kts | 257° |
| 2026-05-03 20:16 | 40.02705 | -105.40195 | 20009 ft | 242 kts | 257° |
| 2026-05-03 20:16 | 40.02272 | -105.42303 | 20172 ft | 241 kts | 257° |
| 2026-05-03 20:16 | 40.01839 | -105.44400 | 20326 ft | 241 kts | 256° |
| 2026-05-03 20:16 | 40.01398 | -105.46516 | 20478 ft | 240 kts | 257° |
| 2026-05-03 20:17 | 40.00970 | -105.48630 | 20625 ft | 240 kts | 257° |
| 2026-05-03 20:17 | 40.00544 | -105.50729 | 20777 ft | 240 kts | 257° |
| 2026-05-03 20:17 | 40.00120 | -105.52814 | 20915 ft | 239 kts | 257° |
| 2026-05-03 20:17 | 39.99683 | -105.54916 | 21035 ft | 239 kts | 257° |
| 2026-05-03 20:18 | 39.99254 | -105.57009 | 21157 ft | 239 kts | 257° |
| 2026-05-03 20:18 | 39.98825 | -105.59116 | 21205 ft | 243 kts | 257° |
| 2026-05-03 20:18 | 39.98381 | -105.61252 | 21238 ft | 245 kts | 257° |
| 2026-05-03 20:18 | 39.97939 | -105.63383 | 21272 ft | 245 kts | 257° |
| 2026-05-03 20:19 | 39.97502 | -105.65521 | 21303 ft | 245 kts | 259° |
| 2026-05-03 20:19 | 39.97389 | -105.67723 | 21311 ft | 243 kts | 272° |
| 2026-05-03 20:19 | 39.97481 | -105.69926 | 21342 ft | 243 kts | 274° |
| 2026-05-03 20:19 | 39.97579 | -105.72128 | 21382 ft | 243 kts | 274° |
| 2026-05-03 20:20 | 39.97676 | -105.74324 | 21405 ft | 243 kts | 273° |
| 2026-05-03 20:20 | 39.97769 | -105.76497 | 21423 ft | 243 kts | 273° |
| 2026-05-03 20:20 | 39.97861 | -105.78681 | 21452 ft | 242 kts | 273° |
| 2026-05-03 20:20 | 39.97951 | -105.80888 | 21484 ft | 242 kts | 273° |
| 2026-05-03 20:21 | 39.98040 | -105.83065 | 21510 ft | 242 kts | 273° |
| 2026-05-03 20:21 | 39.98126 | -105.85234 | 21530 ft | 242 kts | 273° |
| 2026-05-03 20:21 | 39.98213 | -105.87433 | 21556 ft | 242 kts | 273° |
| 2026-05-03 20:21 | 39.98299 | -105.89611 | 21591 ft | 243 kts | 274° |
| 2026-05-03 20:22 | 39.98385 | -105.91803 | 21633 ft | 243 kts | 274° |
| 2026-05-03 20:22 | 39.98471 | -105.94028 | 21666 ft | 244 kts | 274° |
| 2026-05-03 20:22 | 39.98554 | -105.96195 | 21761 ft | 242 kts | 274° |
| 2026-05-03 20:22 | 39.98638 | -105.98400 | 21889 ft | 240 kts | 274° |
| 2026-05-03 20:23 | 39.98720 | -106.00549 | 22013 ft | 238 kts | 273° |
| 2026-05-03 20:23 | 39.98801 | -106.02684 | 22134 ft | 236 kts | 274° |
| 2026-05-03 20:23 | 39.98881 | -106.04825 | 22223 ft | 235 kts | 273° |
| 2026-05-03 20:23 | 39.98961 | -106.06939 | 22254 ft | 238 kts | 273° |
| 2026-05-03 20:24 | 39.99043 | -106.09116 | 22272 ft | 240 kts | 273° |
| 2026-05-03 20:24 | 39.99123 | -106.11294 | 22276 ft | 244 kts | 274° |
| 2026-05-03 20:24 | 39.99205 | -106.13509 | 22278 ft | 247 kts | 274° |
| 2026-05-03 20:24 | 39.99288 | -106.15783 | 22273 ft | 250 kts | 274° |
| 2026-05-03 20:25 | 39.99369 | -106.18031 | 22281 ft | 251 kts | 274° |
| 2026-05-03 20:25 | 39.99451 | -106.20332 | 22285 ft | 253 kts | 274° |
| 2026-05-03 20:25 | 39.99533 | -106.22611 | 22293 ft | 254 kts | 274° |
| 2026-05-03 20:25 | 39.99614 | -106.24888 | 22294 ft | 253 kts | 274° |
| 2026-05-03 20:26 | 39.99694 | -106.27177 | 22298 ft | 253 kts | 273° |
| 2026-05-03 20:26 | 39.99775 | -106.29476 | 22294 ft | 252 kts | 273° |
| 2026-05-03 20:26 | 39.99855 | -106.31757 | 22297 ft | 252 kts | 273° |
| 2026-05-03 20:26 | 39.99933 | -106.34018 | 22297 ft | 250 kts | 273° |
| 2026-05-03 20:27 | 40.00011 | -106.36274 | 22305 ft | 248 kts | 273° |
| 2026-05-03 20:27 | 40.00088 | -106.38506 | 22307 ft | 246 kts | 274° |
| 2026-05-03 20:27 | 40.00164 | -106.40720 | 22301 ft | 245 kts | 273° |
| 2026-05-03 20:27 | 40.00240 | -106.42961 | 22192 ft | 248 kts | 273° |
| 2026-05-03 20:28 | 40.00319 | -106.45197 | 22069 ft | 252 kts | 274° |
| 2026-05-03 20:28 | 40.00430 | -106.47510 | 21943 ft | 255 kts | 275° |
| 2026-05-03 20:28 | 40.00548 | -106.49802 | 21818 ft | 258 kts | 275° |
| 2026-05-03 20:28 | 40.00669 | -106.52162 | 21696 ft | 262 kts | 275° |
| 2026-05-03 20:29 | 40.00789 | -106.54552 | 21577 ft | 265 kts | 274° |
| 2026-05-03 20:29 | 40.00909 | -106.56966 | 21453 ft | 269 kts | 274° |
| 2026-05-03 20:29 | 40.01031 | -106.59417 | 21332 ft | 272 kts | 274° |
| 2026-05-03 20:29 | 40.01151 | -106.61867 | 21212 ft | 275 kts | 274° |
| 2026-05-03 20:30 | 40.01274 | -106.64377 | 21094 ft | 278 kts | 274° |
| 2026-05-03 20:30 | 40.01395 | -106.66891 | 20976 ft | 281 kts | 274° |
| 2026-05-03 20:30 | 40.01519 | -106.69454 | 20861 ft | 284 kts | 274° |
| 2026-05-03 20:30 | 40.01642 | -106.72013 | 20743 ft | 287 kts | 274° |
| 2026-05-03 20:31 | 40.01765 | -106.74621 | 20621 ft | 290 kts | 274° |
| 2026-05-03 20:31 | 40.01890 | -106.77256 | 20502 ft | 292 kts | 274° |
| 2026-05-03 20:31 | 40.02016 | -106.79915 | 20379 ft | 294 kts | 274° |
| 2026-05-03 20:31 | 40.02139 | -106.82547 | 20322 ft | 293 kts | 274° |
| 2026-05-03 20:32 | 40.02262 | -106.85174 | 20305 ft | 291 kts | 274° |
| 2026-05-03 20:32 | 40.02384 | -106.87809 | 20317 ft | 289 kts | 274° |
| 2026-05-03 20:32 | 40.02503 | -106.90425 | 20319 ft | 287 kts | 274° |
| 2026-05-03 20:32 | 40.02620 | -106.92990 | 20326 ft | 285 kts | 274° |
| 2026-05-03 20:33 | 40.02740 | -106.95583 | 20319 ft | 285 kts | 274° |
| 2026-05-03 20:33 | 40.02857 | -106.98126 | 20310 ft | 284 kts | 274° |
| 2026-05-03 20:33 | 40.02974 | -107.00693 | 20313 ft | 283 kts | 274° |
| 2026-05-03 20:33 | 40.03090 | -107.03251 | 20317 ft | 282 kts | 274° |
| 2026-05-03 20:34 | 40.03204 | -107.05785 | 20314 ft | 281 kts | 274° |
| 2026-05-03 20:34 | 40.03317 | -107.08308 | 20304 ft | 280 kts | 274° |
| 2026-05-03 20:34 | 40.03431 | -107.10860 | 20309 ft | 279 kts | 274° |
| 2026-05-03 20:34 | 40.03541 | -107.13365 | 20313 ft | 278 kts | 274° |
| 2026-05-03 20:35 | 40.03651 | -107.15883 | 20309 ft | 278 kts | 273° |
| 2026-05-03 20:35 | 40.03760 | -107.18387 | 20310 ft | 277 kts | 273° |
| 2026-05-03 20:35 | 40.03869 | -107.20888 | 20304 ft | 276 kts | 273° |
| 2026-05-03 20:35 | 40.03978 | -107.23384 | 20300 ft | 276 kts | 273° |
| 2026-05-03 20:36 | 40.04086 | -107.25880 | 20296 ft | 275 kts | 273° |
| 2026-05-03 20:36 | 40.04194 | -107.28387 | 20292 ft | 275 kts | 273° |
| 2026-05-03 20:36 | 40.04299 | -107.30852 | 20292 ft | 274 kts | 273° |
| 2026-05-03 20:36 | 40.04404 | -107.33343 | 20290 ft | 273 kts | 273° |
| 2026-05-03 20:37 | 40.04509 | -107.35801 | 20281 ft | 273 kts | 273° |
| 2026-05-03 20:37 | 40.04613 | -107.38278 | 20285 ft | 272 kts | 273° |
| 2026-05-03 20:37 | 40.04716 | -107.40717 | 20281 ft | 272 kts | 273° |
| 2026-05-03 20:37 | 40.04819 | -107.43186 | 20278 ft | 271 kts | 273° |
| 2026-05-03 20:38 | 40.04921 | -107.45642 | 20267 ft | 271 kts | 273° |
| 2026-05-03 20:38 | 40.05021 | -107.48070 | 20261 ft | 271 kts | 273° |
| 2026-05-03 20:38 | 40.05122 | -107.50528 | 20253 ft | 271 kts | 273° |
| 2026-05-03 20:38 | 40.05222 | -107.52962 | 20248 ft | 270 kts | 273° |
| 2026-05-03 20:39 | 40.05321 | -107.55421 | 20246 ft | 270 kts | 273° |
| 2026-05-03 20:39 | 40.05419 | -107.57845 | 20243 ft | 269 kts | 273° |
| 2026-05-03 20:39 | 40.05518 | -107.60301 | 20236 ft | 269 kts | 273° |
| 2026-05-03 20:39 | 40.05614 | -107.62719 | 20234 ft | 269 kts | 273° |
| 2026-05-03 20:40 | 40.05711 | -107.65163 | 20226 ft | 269 kts | 272° |
| 2026-05-03 20:40 | 40.05808 | -107.67606 | 20209 ft | 269 kts | 272° |
| 2026-05-03 20:40 | 40.05904 | -107.70047 | 20208 ft | 270 kts | 272° |
| 2026-05-03 20:40 | 40.06000 | -107.72497 | 20204 ft | 270 kts | 272° |
| 2026-05-03 20:41 | 40.06095 | -107.74920 | 20193 ft | 270 kts | 272° |
| 2026-05-03 20:41 | 40.06189 | -107.77374 | 20188 ft | 271 kts | 272° |
| 2026-05-03 20:41 | 40.06283 | -107.79801 | 20185 ft | 271 kts | 272° |
| 2026-05-03 20:41 | 40.06377 | -107.82262 | 20183 ft | 272 kts | 272° |
| 2026-05-03 20:42 | 40.06472 | -107.84754 | 20189 ft | 273 kts | 272° |
| 2026-05-03 20:42 | 40.06565 | -107.87204 | 20188 ft | 274 kts | 272° |
| 2026-05-03 20:42 | 40.06659 | -107.89697 | 20181 ft | 275 kts | 272° |
| 2026-05-03 20:42 | 40.06753 | -107.92193 | 20182 ft | 280 kts | 272° |
| 2026-05-03 20:43 | 40.06858 | -107.94742 | 20181 ft | 284 kts | 273° |
| 2026-05-03 20:43 | 40.06980 | -107.97326 | 20181 ft | 288 kts | 273° |
| 2026-05-03 20:43 | 40.07103 | -107.99942 | 20186 ft | 290 kts | 273° |
| 2026-05-03 20:43 | 40.07227 | -108.02580 | 20184 ft | 293 kts | 273° |
| 2026-05-03 20:44 | 40.07351 | -108.05260 | 20176 ft | 296 kts | 273° |
| 2026-05-03 20:44 | 40.07474 | -108.07931 | 20171 ft | 298 kts | 273° |
| 2026-05-03 20:44 | 40.07597 | -108.10652 | 20172 ft | 300 kts | 272° |
| 2026-05-03 20:44 | 40.07721 | -108.13390 | 20164 ft | 301 kts | 273° |
| 2026-05-03 20:45 | 40.07842 | -108.16098 | 20164 ft | 302 kts | 272° |
| 2026-05-03 20:45 | 40.07964 | -108.18824 | 20159 ft | 303 kts | 273° |
| 2026-05-03 20:45 | 40.08086 | -108.21585 | 20160 ft | 303 kts | 272° |
| 2026-05-03 20:45 | 40.08206 | -108.24329 | 20159 ft | 301 kts | 272° |
| 2026-05-03 20:46 | 40.08325 | -108.27052 | 20160 ft | 299 kts | 272° |
| 2026-05-03 20:46 | 40.08440 | -108.29717 | 20164 ft | 297 kts | 272° |
| 2026-05-03 20:46 | 40.08557 | -108.32417 | 20169 ft | 295 kts | 272° |
| 2026-05-03 20:46 | 40.08670 | -108.35068 | 20166 ft | 294 kts | 272° |
| 2026-05-03 20:47 | 40.08785 | -108.37761 | 20162 ft | 292 kts | 273° |
| 2026-05-03 20:47 | 40.08896 | -108.40379 | 20162 ft | 291 kts | 272° |
| 2026-05-03 20:47 | 40.09007 | -108.43013 | 20158 ft | 290 kts | 272° |
| 2026-05-03 20:47 | 40.09117 | -108.45631 | 20162 ft | 289 kts | 272° |
| 2026-05-03 20:48 | 40.09228 | -108.48272 | 20161 ft | 288 kts | 272° |
| 2026-05-03 20:48 | 40.09336 | -108.50854 | 20163 ft | 288 kts | 272° |
| 2026-05-03 20:48 | 40.09445 | -108.53478 | 20158 ft | 287 kts | 272° |
| 2026-05-03 20:48 | 40.09551 | -108.56049 | 20158 ft | 286 kts | 272° |
| 2026-05-03 20:49 | 40.09658 | -108.58648 | 20152 ft | 286 kts | 272° |
| 2026-05-03 20:49 | 40.09763 | -108.61227 | 20149 ft | 285 kts | 272° |
| 2026-05-03 20:49 | 40.09866 | -108.63791 | 20153 ft | 285 kts | 272° |
| 2026-05-03 20:49 | 40.09971 | -108.66383 | 20154 ft | 284 kts | 272° |
| 2026-05-03 20:50 | 40.10075 | -108.68969 | 20152 ft | 284 kts | 272° |
| 2026-05-03 20:50 | 40.10178 | -108.71545 | 20146 ft | 284 kts | 272° |
| 2026-05-03 20:50 | 40.10278 | -108.74085 | 20142 ft | 283 kts | 272° |
| 2026-05-03 20:50 | 40.10379 | -108.76646 | 20141 ft | 283 kts | 272° |
| 2026-05-03 20:51 | 40.10479 | -108.79216 | 20145 ft | 283 kts | 272° |
| 2026-05-03 20:51 | 40.10580 | -108.81789 | 20146 ft | 283 kts | 272° |
| 2026-05-03 20:51 | 40.10678 | -108.84321 | 20139 ft | 283 kts | 272° |
| 2026-05-03 20:51 | 40.10778 | -108.86890 | 20143 ft | 283 kts | 271° |
| 2026-05-03 20:52 | 40.10875 | -108.89432 | 20140 ft | 283 kts | 272° |
| 2026-05-03 20:52 | 40.10973 | -108.92004 | 20135 ft | 283 kts | 272° |
| 2026-05-03 20:52 | 40.11070 | -108.94579 | 20136 ft | 283 kts | 272° |
| 2026-05-03 20:52 | 40.11166 | -108.97114 | 20146 ft | 283 kts | 272° |
| 2026-05-03 20:53 | 40.11263 | -108.99684 | 20144 ft | 283 kts | 272° |
| 2026-05-03 20:53 | 40.11357 | -109.02255 | 20134 ft | 283 kts | 272° |
| 2026-05-03 20:53 | 40.11454 | -109.04796 | 20131 ft | 283 kts | 272° |
| 2026-05-03 20:53 | 40.11551 | -109.07364 | 20134 ft | 283 kts | 272° |
| 2026-05-03 20:54 | 40.11648 | -109.09925 | 20138 ft | 283 kts | 272° |
| 2026-05-03 20:54 | 40.11834 | -109.15079 | 20147 ft | 283 kts | 272° |
| 2026-05-03 20:54 | 40.11923 | -109.17612 | 20148 ft | 283 kts | 272° |
| 2026-05-03 20:55 | 40.12013 | -109.20187 | 20144 ft | 283 kts | 272° |
| 2026-05-03 20:55 | 40.12103 | -109.22754 | 20139 ft | 284 kts | 272° |
| 2026-05-03 20:55 | 40.12192 | -109.25311 | 20137 ft | 284 kts | 272° |
| 2026-05-03 20:55 | 40.12283 | -109.27892 | 20132 ft | 284 kts | 272° |
| 2026-05-03 20:56 | 40.12371 | -109.30458 | 20129 ft | 284 kts | 272° |
| 2026-05-03 20:56 | 40.12460 | -109.33044 | 20127 ft | 285 kts | 272° |
| 2026-05-03 20:56 | 40.12549 | -109.35627 | 20120 ft | 285 kts | 272° |
| 2026-05-03 20:56 | 40.12637 | -109.38202 | 20118 ft | 285 kts | 272° |
| 2026-05-03 20:57 | 40.12724 | -109.40781 | 20120 ft | 284 kts | 272° |
| 2026-05-03 20:57 | 40.12810 | -109.43356 | 20113 ft | 285 kts | 272° |
| 2026-05-03 20:57 | 40.12896 | -109.45926 | 20108 ft | 284 kts | 272° |
| 2026-05-03 20:57 | 40.12981 | -109.48483 | 20112 ft | 284 kts | 272° |
| 2026-05-03 20:58 | 40.13066 | -109.51065 | 20105 ft | 284 kts | 272° |
| 2026-05-03 20:58 | 40.13151 | -109.53645 | 20103 ft | 284 kts | 272° |
| 2026-05-03 20:58 | 40.13235 | -109.56196 | 20112 ft | 283 kts | 272° |
| 2026-05-03 20:58 | 40.13317 | -109.58745 | 20111 ft | 283 kts | 272° |
| 2026-05-03 20:59 | 40.13400 | -109.61328 | 20108 ft | 283 kts | 272° |
| 2026-05-03 20:59 | 40.13481 | -109.63890 | 20112 ft | 283 kts | 272° |
| 2026-05-03 20:59 | 40.13563 | -109.66466 | 20116 ft | 282 kts | 272° |
| 2026-05-03 20:59 | 40.13643 | -109.69032 | 20114 ft | 282 kts | 272° |
| 2026-05-03 21:00 | 40.13723 | -109.71591 | 20117 ft | 283 kts | 272° |
| 2026-05-03 21:00 | 40.13777 | -109.73312 | 20113 ft | 283 kts | 272° |
| 2026-05-03 21:00 | 40.13881 | -109.76704 | 20107 ft | 283 kts | 272° |
| 2026-05-03 21:00 | 40.13959 | -109.79269 | 20109 ft | 283 kts | 272° |
| 2026-05-03 21:01 | 40.14037 | -109.81827 | 20111 ft | 283 kts | 272° |
| 2026-05-03 21:01 | 40.14115 | -109.84396 | 20118 ft | 283 kts | 271° |
| 2026-05-03 21:01 | 40.14191 | -109.86967 | 20121 ft | 283 kts | 272° |
| 2026-05-03 21:01 | 40.14268 | -109.89552 | 20120 ft | 284 kts | 271° |
| 2026-05-03 21:02 | 40.14344 | -109.92134 | 20118 ft | 285 kts | 272° |
| 2026-05-03 21:02 | 40.14420 | -109.94720 | 20120 ft | 285 kts | 272° |
| 2026-05-03 21:02 | 40.14494 | -109.97295 | 20121 ft | 286 kts | 271° |
| 2026-05-03 21:02 | 40.14568 | -109.99871 | 20132 ft | 286 kts | 272° |
| 2026-05-03 21:03 | 40.14643 | -110.02483 | 20136 ft | 287 kts | 272° |
| 2026-05-03 21:03 | 40.14717 | -110.05099 | 20135 ft | 288 kts | 272° |
| 2026-05-03 21:03 | 40.14790 | -110.07687 | 20125 ft | 289 kts | 271° |
| 2026-05-03 21:03 | 40.14864 | -110.10314 | 20129 ft | 289 kts | 271° |
| 2026-05-03 21:04 | 40.14935 | -110.12918 | 20138 ft | 289 kts | 271° |
| 2026-05-03 21:04 | 40.14953 | -110.15546 | 20142 ft | 289 kts | 269° |
| 2026-05-03 21:04 | 40.14923 | -110.18183 | 20152 ft | 289 kts | 269° |
| 2026-05-03 21:04 | 40.14895 | -110.20776 | 20163 ft | 289 kts | 269° |
| 2026-05-03 21:05 | 40.14865 | -110.23410 | 20174 ft | 288 kts | 269° |
| 2026-05-03 21:05 | 40.14841 | -110.26003 | 20179 ft | 288 kts | 269° |
| 2026-05-03 21:05 | 40.14815 | -110.28638 | 20178 ft | 288 kts | 269° |
| 2026-05-03 21:05 | 40.14791 | -110.31233 | 20180 ft | 288 kts | 269° |
| 2026-05-03 21:06 | 40.14769 | -110.33881 | 20178 ft | 288 kts | 269° |
| 2026-05-03 21:06 | 40.14746 | -110.36475 | 20182 ft | 288 kts | 269° |
| 2026-05-03 21:06 | 40.14720 | -110.39071 | 20184 ft | 288 kts | 269° |
| 2026-05-03 21:06 | 40.14694 | -110.41705 | 20195 ft | 288 kts | 269° |
| 2026-05-03 21:07 | 40.14669 | -110.44295 | 20197 ft | 287 kts | 269° |
| 2026-05-03 21:07 | 40.14642 | -110.46912 | 20208 ft | 287 kts | 269° |
| 2026-05-03 21:07 | 40.14616 | -110.49504 | 20216 ft | 287 kts | 269° |
| 2026-05-03 21:07 | 40.14588 | -110.52109 | 20220 ft | 287 kts | 269° |
| 2026-05-03 21:08 | 40.14561 | -110.54733 | 20216 ft | 287 kts | 269° |
| 2026-05-03 21:08 | 40.14533 | -110.57319 | 20214 ft | 288 kts | 269° |
| 2026-05-03 21:08 | 40.14504 | -110.59943 | 20213 ft | 288 kts | 269° |
| 2026-05-03 21:08 | 40.14475 | -110.62530 | 20223 ft | 287 kts | 269° |
| 2026-05-03 21:09 | 40.14445 | -110.65153 | 20227 ft | 287 kts | 268° |
| 2026-05-03 21:09 | 40.14415 | -110.67748 | 20230 ft | 287 kts | 268° |
| 2026-05-03 21:09 | 40.14384 | -110.70365 | 20230 ft | 288 kts | 268° |
| 2026-05-03 21:09 | 40.14352 | -110.72971 | 20235 ft | 288 kts | 268° |
| 2026-05-03 21:10 | 40.14320 | -110.75568 | 20241 ft | 288 kts | 268° |
| 2026-05-03 21:10 | 40.14287 | -110.78202 | 20252 ft | 288 kts | 268° |
| 2026-05-03 21:10 | 40.14254 | -110.80821 | 20255 ft | 288 kts | 268° |
| 2026-05-03 21:10 | 40.14220 | -110.83409 | 20247 ft | 289 kts | 268° |
| 2026-05-03 21:11 | 40.14186 | -110.86031 | 20249 ft | 289 kts | 268° |
| 2026-05-03 21:11 | 40.14151 | -110.88656 | 20250 ft | 289 kts | 268° |
| 2026-05-03 21:11 | 40.14115 | -110.91281 | 20248 ft | 288 kts | 268° |
| 2026-05-03 21:11 | 40.14079 | -110.93874 | 20249 ft | 288 kts | 268° |
| 2026-05-03 21:12 | 40.14041 | -110.96495 | 20259 ft | 287 kts | 268° |
| 2026-05-03 21:12 | 40.14005 | -110.99103 | 20263 ft | 287 kts | 268° |
| 2026-05-03 21:12 | 40.13967 | -111.01685 | 20256 ft | 286 kts | 268° |
| 2026-05-03 21:12 | 40.13929 | -111.04295 | 20258 ft | 286 kts | 268° |
| 2026-05-03 21:13 | 40.13890 | -111.06885 | 20259 ft | 285 kts | 268° |
| 2026-05-03 21:13 | 40.13851 | -111.09449 | 20252 ft | 285 kts | 268° |
| 2026-05-03 21:13 | 40.13811 | -111.12019 | 20248 ft | 284 kts | 268° |
| 2026-05-03 21:13 | 40.13771 | -111.14591 | 20242 ft | 284 kts | 268° |
| 2026-05-03 21:14 | 40.13731 | -111.17168 | 20240 ft | 283 kts | 268° |
| 2026-05-03 21:14 | 40.13689 | -111.19752 | 20235 ft | 283 kts | 268° |
| 2026-05-03 21:14 | 40.13647 | -111.22306 | 20228 ft | 283 kts | 267° |
| 2026-05-03 21:14 | 40.13605 | -111.24883 | 20230 ft | 283 kts | 267° |
| 2026-05-03 21:15 | 40.13562 | -111.27426 | 20218 ft | 282 kts | 267° |
| 2026-05-03 21:15 | 40.13517 | -111.29990 | 20219 ft | 282 kts | 267° |
| 2026-05-03 21:15 | 40.13474 | -111.32544 | 20217 ft | 281 kts | 267° |
| 2026-05-03 21:15 | 40.13430 | -111.35082 | 20202 ft | 281 kts | 267° |
| 2026-05-03 21:16 | 40.13384 | -111.37652 | 20198 ft | 281 kts | 267° |
| 2026-05-03 21:16 | 40.13338 | -111.40190 | 20181 ft | 282 kts | 267° |
| 2026-05-03 21:16 | 40.13291 | -111.42769 | 20161 ft | 282 kts | 267° |
| 2026-05-03 21:16 | 40.13244 | -111.45319 | 20144 ft | 283 kts | 267° |
| 2026-05-03 21:17 | 40.13197 | -111.47881 | 20133 ft | 284 kts | 267° |
| 2026-05-03 21:17 | 40.13164 | -111.49590 | 20117 ft | 285 kts | 267° |
| 2026-05-03 21:17 | 40.13099 | -111.53042 | 19912 ft | 286 kts | 267° |
| 2026-05-03 21:17 | 40.12943 | -111.55648 | 19591 ft | 290 kts | 259° |
| 2026-05-03 21:18 | 40.12509 | -111.58257 | 19225 ft | 297 kts | 256° |
| 2026-05-03 21:18 | 40.12034 | -111.60866 | 18839 ft | 302 kts | 256° |
| 2026-05-03 21:18 | 40.11543 | -111.63570 | 18438 ft | 308 kts | 256° |
| 2026-05-03 21:18 | 40.11048 | -111.66296 | 18025 ft | 314 kts | 255° |
| 2026-05-03 21:19 | 40.10544 | -111.69091 | 17599 ft | 318 kts | 255° |
| 2026-05-03 21:19 | 40.10036 | -111.71909 | 17174 ft | 322 kts | 255° |
| 2026-05-03 21:19 | 40.09521 | -111.74770 | 16750 ft | 325 kts | 255° |
| 2026-05-03 21:19 | 40.09003 | -111.77663 | 16316 ft | 327 kts | 256° |
| 2026-05-03 21:20 | 40.08857 | -111.80617 | 15841 ft | 332 kts | 277° |
| 2026-05-03 21:20 | 40.09515 | -111.83498 | 15441 ft | 334 kts | 288° |
| 2026-05-03 21:20 | 40.10307 | -111.86346 | 15003 ft | 336 kts | 288° |
| 2026-05-03 21:20 | 40.11117 | -111.89220 | 14559 ft | 337 kts | 289° |
| 2026-05-03 21:21 | 40.11919 | -111.92074 | 14123 ft | 338 kts | 289° |
| 2026-05-03 21:21 | 40.12730 | -111.94967 | 13710 ft | 337 kts | 289° |
| 2026-05-03 21:21 | 40.13528 | -111.97826 | 13328 ft | 334 kts | 289° |
| 2026-05-03 21:21 | 40.14367 | -112.00562 | 13132 ft | 323 kts | 296° |
| 2026-05-03 21:22 | 40.15605 | -112.02952 | 12922 ft | 313 kts | 305° |
| 2026-05-03 21:22 | 40.16898 | -112.05201 | 12657 ft | 307 kts | 306° |
| 2026-05-03 21:22 | 40.18195 | -112.07410 | 12317 ft | 305 kts | 309° |
| 2026-05-03 21:22 | 40.19885 | -112.08995 | 11944 ft | 304 kts | 339° |
| 2026-05-03 21:23 | 40.21950 | -112.09228 | 11715 ft | 300 kts | 8° |
| 2026-05-03 21:23 | 40.23957 | -112.08554 | 11473 ft | 296 kts | 16° |
| 2026-05-03 21:23 | 40.25920 | -112.07774 | 11217 ft | 293 kts | 17° |
| 2026-05-03 21:23 | 40.27859 | -112.06978 | 10959 ft | 291 kts | 17° |
| 2026-05-03 21:24 | 40.29789 | -112.06173 | 10703 ft | 289 kts | 17° |
| 2026-05-03 21:24 | 40.31686 | -112.05373 | 10448 ft | 287 kts | 17° |
| 2026-05-03 21:24 | 40.33571 | -112.04574 | 10197 ft | 286 kts | 18° |
| 2026-05-03 21:24 | 40.35449 | -112.03771 | 9932 ft | 285 kts | 18° |
| 2026-05-03 21:25 | 40.37174 | -112.02510 | 9531 ft | 287 kts | 45° |
| 2026-05-03 21:25 | 40.38124 | -112.00246 | 9302 ft | 281 kts | 77° |
| 2026-05-03 21:25 | 40.38354 | -111.97756 | 9088 ft | 278 kts | 86° |
| 2026-05-03 21:25 | 40.38493 | -111.95209 | 8848 ft | 277 kts | 86° |
| 2026-05-03 21:26 | 40.38626 | -111.92702 | 8603 ft | 277 kts | 86° |
| 2026-05-03 21:26 | 40.38755 | -111.90211 | 8348 ft | 276 kts | 86° |
| 2026-05-03 21:26 | 40.38865 | -111.87684 | 8020 ft | 279 kts | 90° |
| 2026-05-03 21:26 | 40.38317 | -111.85286 | 7743 ft | 275 kts | 124° |
| 2026-05-03 21:27 | 40.36894 | -111.83759 | 7441 ft | 263 kts | 159° |
| 2026-05-03 21:27 | 40.35154 | -111.83529 | 7138 ft | 250 kts | 186° |
| 2026-05-03 21:27 | 40.33483 | -111.83246 | 6858 ft | 241 kts | 153° |
| 2026-05-03 21:27 | 40.32243 | -111.81821 | 6598 ft | 232 kts | 132° |
| 2026-05-03 21:28 | 40.31048 | -111.80449 | 6312 ft | 224 kts | 145° |
| 2026-05-03 21:28 | 40.29819 | -111.79360 | 6063 ft | 207 kts | 145° |
| 2026-05-03 21:28 | 40.28672 | -111.78294 | 5832 ft | 197 kts | 145° |
| 2026-05-03 21:28 | 40.27548 | -111.77283 | 5571 ft | 196 kts | 146° |
| 2026-05-03 21:29 | 40.26445 | -111.76297 | 5297 ft | 186 kts | 145° |
| 2026-05-03 21:29 | 40.25426 | -111.75381 | 5050 ft | 169 kts | 146° |
| 2026-05-03 21:29 | 40.24486 | -111.74548 | 4850 ft | 163 kts | 146° |
| 2026-05-03 21:29 | 40.23554 | -111.73715 | 4619 ft | 159 kts | 146° |
| 2026-05-03 21:30 | 40.22658 | -111.72922 | 4508 ft | 148 kts | 146° |
| 2026-05-03 21:30 | 40.21955 | -111.72299 | 4510 ft | 83 kts | 146° |
| 2026-05-03 21:30 | 40.21714 | -111.72086 | 4510 ft | 25 kts | 143° |
| 2026-05-03 21:30 | 40.21581 | -111.71966 | 4511 ft | 20 kts | 146° |
| 2026-05-03 21:31 | 40.21473 | -111.71871 | 4511 ft | 18 kts | 146° |
| 2026-05-03 21:31 | 40.21350 | -111.71767 | 4511 ft | 23 kts | 148° |
| 2026-05-03 21:31 | 40.21207 | -111.71636 | 4509 ft | 25 kts | 145° |
| 2026-05-03 21:31 | 40.21096 | -111.71523 | 4509 ft | 12 kts | 106° |
| 2026-05-03 21:32 | 40.21121 | -111.71433 | 4509 ft | 9 kts | 56° |
| 2026-05-03 21:32 | 40.21164 | -111.71386 | 4509 ft | 7 kts | 358° |
| 2026-05-03 21:32 | 40.21199 | -111.71410 | 4509 ft | 4 kts | 328° |
| 2026-05-03 21:32 | 40.21222 | -111.71430 | 4509 ft | 4 kts | 325° |
| 2026-05-03 21:33 | 40.21264 | -111.71469 | 4509 ft | 10 kts | 324° |
| 2026-05-03 21:33 | 40.21333 | -111.71491 | 4509 ft | 12 kts | 49° |
| 2026-05-03 21:33 | 40.21379 | -111.71402 | 4509 ft | 9 kts | 55° |
| 2026-05-03 21:33 | 40.21400 | -111.71361 | 4509 ft | 2 kts | 56° |
| 2026-05-03 21:34 | 40.21402 | -111.71356 | 4509 ft | 0 kts | 56° |